createdAt,value
2017-09-27T00:01:43.934Z,69.47
2017-09-27T00:04:11.446Z,75.57
2017-09-27T00:06:38.986Z,69.13
2017-09-27T00:09:06.501Z,74.47
2017-09-27T00:11:34.077Z,76.50
2017-09-27T00:14:03.440Z,82.80
2017-09-27T00:16:31.762Z,87.53
2017-09-27T00:19:00.069Z,74.60
2017-09-27T00:21:27.586Z,77.47
2017-09-27T00:23:55.121Z,71.97
2017-09-27T00:26:23.409Z,69.47
2017-09-27T00:28:51.713Z,78.40
2017-09-27T00:31:19.232Z,75.33
2017-09-27T00:33:47.529Z,70.40
2017-09-27T00:36:15.045Z,80.03
2017-09-27T00:38:42.591Z,77.27
2017-09-27T00:41:11.457Z,84.90
2017-09-27T00:43:40.408Z,85.70
2017-09-27T00:46:09.272Z,81.70
2017-09-27T00:48:38.184Z,76.43
2017-09-27T00:51:07.048Z,78.83
2017-09-27T00:53:35.904Z,87.10
2017-09-27T00:56:04.783Z,76.57
2017-09-27T00:58:33.656Z,81.07
2017-09-27T01:01:02.539Z,76.70
2017-09-27T01:03:31.404Z,87.53
2017-09-27T01:06:00.280Z,81.30
2017-09-27T01:08:29.145Z,68.60
2017-09-27T01:10:58.025Z,71.60
2017-09-27T01:13:26.893Z,73.53
2017-09-27T01:15:55.772Z,85.97
2017-09-27T01:18:24.632Z,77.67
2017-09-27T01:20:53.541Z,91.10
2017-09-27T01:23:22.408Z,73.97
2017-09-27T01:25:51.283Z,87.07
2017-09-27T01:28:20.160Z,92.47
2017-09-27T01:30:49.033Z,78.13
2017-09-27T01:33:17.910Z,80.87
2017-09-27T01:35:46.771Z,97.27
2017-09-27T01:38:15.648Z,97.00
2017-09-27T01:40:44.516Z,93.73
2017-09-27T01:43:13.388Z,94.97
2017-09-27T01:45:42.260Z,100.57
2017-09-27T01:48:11.152Z,93.07
2017-09-27T01:50:40.044Z,95.57
2017-09-27T01:53:08.919Z,96.43
2017-09-27T01:55:37.797Z,92.40
2017-09-27T01:58:06.660Z,94.67
2017-09-27T02:00:35.540Z,103.37
2017-09-27T02:03:04.400Z,98.90
2017-09-27T02:05:33.274Z,94.57
2017-09-27T02:08:00.797Z,100.43
2017-09-27T02:10:28.328Z,102.10
2017-09-27T02:12:55.844Z,96.10
2017-09-27T02:15:23.382Z,98.17
2017-09-27T02:17:50.906Z,90.90
2017-09-27T02:20:19.601Z,98.63
2017-09-27T02:22:48.279Z,92.77
2017-09-27T02:25:15.805Z,107.20
2017-09-27T02:27:44.477Z,109.20
2017-09-27T02:30:11.994Z,91.30
2017-09-27T02:32:40.293Z,98.97
2017-09-27T02:35:07.821Z,94.47
2017-09-27T02:37:35.766Z,98.57
2017-09-27T02:40:03.677Z,84.10
2017-09-27T02:42:31.972Z,95.60
2017-09-27T02:44:59.498Z,112.20
2017-09-27T02:47:27.035Z,87.87
2017-09-27T02:49:54.545Z,99.67
2017-09-27T02:52:22.092Z,86.30
2017-09-27T02:54:50.380Z,101.23
2017-09-27T02:57:18.660Z,104.70
2017-09-27T02:59:46.193Z,100.33
2017-09-27T03:02:14.845Z,95.47
2017-09-27T03:04:43.524Z,94.93
2017-09-27T03:07:11.044Z,84.53
2017-09-27T03:09:39.341Z,99.13
2017-09-27T03:12:06.856Z,92.47
2017-09-27T03:14:35.521Z,93.77
2017-09-27T03:17:03.046Z,87.47
2017-09-27T03:19:30.580Z,105.00
2017-09-27T03:21:58.864Z,95.57
2017-09-27T03:24:27.189Z,100.43
2017-09-27T03:26:54.705Z,103.67
2017-09-27T03:29:22.990Z,93.10
2017-09-27T03:31:50.517Z,81.90
2017-09-27T03:34:18.040Z,89.33
2017-09-27T03:36:45.573Z,91.17
2017-09-27T03:39:13.085Z,95.10
2017-09-27T03:41:40.616Z,98.23
2017-09-27T03:44:08.135Z,84.13
2017-09-27T03:46:37.017Z,81.43
2017-09-27T03:49:05.877Z,97.13
2017-09-27T03:51:34.751Z,88.20
2017-09-27T03:54:03.631Z,100.87
2017-09-27T03:56:32.528Z,91.23
2017-09-27T03:59:01.392Z,82.50
2017-09-27T04:01:30.257Z,91.37
2017-09-27T04:03:59.136Z,87.20
2017-09-27T04:06:27.995Z,80.50
2017-09-27T04:08:56.870Z,87.67
2017-09-27T04:11:25.724Z,85.80
2017-09-27T04:13:54.616Z,87.87
2017-09-27T04:16:23.474Z,83.90
2017-09-27T04:18:52.359Z,79.27
2017-09-27T04:21:21.225Z,90.77
2017-09-27T04:23:50.128Z,94.17
2017-09-27T04:26:18.988Z,81.07
2017-09-27T04:28:47.843Z,87.40
2017-09-27T04:31:16.739Z,92.63
2017-09-27T04:33:45.600Z,92.97
2017-09-27T04:36:14.480Z,83.97
2017-09-27T04:38:43.344Z,99.03
2017-09-27T04:41:12.225Z,97.13
2017-09-27T04:43:41.087Z,91.83
2017-09-27T04:46:09.968Z,112.07
2017-09-27T04:48:38.830Z,89.23
2017-09-27T04:51:07.708Z,96.90
2017-09-27T04:53:36.580Z,102.03
2017-09-27T04:56:05.479Z,90.00
2017-09-27T04:58:34.347Z,108.03
2017-09-27T05:01:03.207Z,86.73
2017-09-27T05:03:32.083Z,92.07
2017-09-27T05:06:00.938Z,86.20
2017-09-27T05:08:29.820Z,89.73
2017-09-27T05:10:58.688Z,97.80
2017-09-27T05:13:27.576Z,101.93
2017-09-27T05:15:56.444Z,89.97
2017-09-27T05:18:25.337Z,91.73
2017-09-27T05:20:54.205Z,93.60
2017-09-27T05:23:23.092Z,94.17
2017-09-27T05:25:51.957Z,79.73
2017-09-27T05:28:20.819Z,93.60
2017-09-27T05:30:49.704Z,83.40
2017-09-27T05:33:18.560Z,89.47
2017-09-27T05:35:47.565Z,107.20
2017-09-27T05:38:16.428Z,83.33
2017-09-27T05:40:45.308Z,95.07
2017-09-27T05:43:14.201Z,92.90
2017-09-27T05:45:43.143Z,91.13
2017-09-27T05:48:12.017Z,101.03
2017-09-27T05:50:40.903Z,86.13
2017-09-27T05:53:09.771Z,93.60
2017-09-27T05:55:38.680Z,88.87
2017-09-27T05:58:07.560Z,77.93
2017-09-27T06:00:36.429Z,100.57
2017-09-27T06:03:05.313Z,97.97
2017-09-27T06:05:34.179Z,79.13
2017-09-27T06:08:03.059Z,95.77
2017-09-27T06:10:31.916Z,96.33
2017-09-27T06:13:00.796Z,91.90
2017-09-27T06:15:29.656Z,96.37
2017-09-27T06:17:58.535Z,95.07
2017-09-27T06:20:27.396Z,108.77
2017-09-27T06:22:56.272Z,89.70
2017-09-27T06:25:25.132Z,95.73
2017-09-27T06:27:54.032Z,95.23
2017-09-27T06:30:22.896Z,114.67
2017-09-27T06:32:51.773Z,100.27
2017-09-27T06:35:20.660Z,105.47
2017-09-27T06:37:49.552Z,109.47
2017-09-27T06:40:18.427Z,93.33
2017-09-27T06:42:47.292Z,94.33
2017-09-27T06:45:16.176Z,99.83
2017-09-27T06:47:45.073Z,87.67
2017-09-27T06:50:13.964Z,90.80
2017-09-27T06:52:42.824Z,85.30
2017-09-27T06:55:11.696Z,80.97
2017-09-27T06:57:40.678Z,79.43
2017-09-27T07:00:09.572Z,77.43
2017-09-27T07:02:38.427Z,91.57
2017-09-27T07:05:07.288Z,75.80
2017-09-27T07:07:36.167Z,78.57
2017-09-27T07:10:05.061Z,72.30
2017-09-27T07:12:33.960Z,71.33
2017-09-27T07:15:02.829Z,70.80
2017-09-27T07:17:30.364Z,72.53
2017-09-27T07:19:59.021Z,73.47
2017-09-27T07:22:26.954Z,66.57
2017-09-27T07:24:54.468Z,76.53
2017-09-27T07:27:22.411Z,96.43
2017-09-27T07:29:49.937Z,77.40
2017-09-27T07:32:17.457Z,65.73
2017-09-27T07:34:46.340Z,67.90
2017-09-27T07:37:14.648Z,80.23
2017-09-27T07:39:42.198Z,70.43
2017-09-27T07:42:11.070Z,58.67
2017-09-27T07:44:39.952Z,73.50
2017-09-27T07:47:08.821Z,72.30
2017-09-27T07:49:37.700Z,63.17
2017-09-27T07:52:06.560Z,69.20
2017-09-27T07:54:34.108Z,85.47
2017-09-27T07:57:02.759Z,72.60
2017-09-27T07:59:31.668Z,67.70
2017-09-27T08:02:00.605Z,76.50
2017-09-27T08:04:29.468Z,65.30
2017-09-27T08:06:58.357Z,67.60
2017-09-27T08:09:27.227Z,63.57
2017-09-27T08:11:56.110Z,70.17
2017-09-27T08:14:24.980Z,80.87
2017-09-27T08:16:53.855Z,67.80
2017-09-27T08:19:22.720Z,70.40
2017-09-27T08:21:51.600Z,79.00
2017-09-27T08:24:20.470Z,80.30
2017-09-27T08:26:49.376Z,67.77
2017-09-27T08:29:18.241Z,77.07
2017-09-27T08:31:47.100Z,61.90
2017-09-27T08:34:15.975Z,77.80
2017-09-27T08:36:44.840Z,63.73
2017-09-27T08:39:13.831Z,69.07
2017-09-27T08:41:42.700Z,68.73
2017-09-27T08:44:11.596Z,74.73
2017-09-27T08:46:40.460Z,75.73
2017-09-27T08:49:09.331Z,61.70
2017-09-27T08:51:38.205Z,65.57
2017-09-27T08:54:07.088Z,69.50
2017-09-27T08:56:35.952Z,68.57
2017-09-27T08:59:04.857Z,73.40
2017-09-27T09:01:33.719Z,65.23
2017-09-27T09:04:02.585Z,65.20
2017-09-27T09:06:31.467Z,74.40
2017-09-27T09:09:00.337Z,64.33
2017-09-27T09:11:29.208Z,64.97
2017-09-27T09:13:58.075Z,62.97
2017-09-27T09:16:26.956Z,63.17
2017-09-27T09:18:55.825Z,63.13
2017-09-27T09:21:24.712Z,66.27
2017-09-27T09:23:53.581Z,55.50
2017-09-27T09:26:22.480Z,53.30
2017-09-27T09:28:51.344Z,57.83
2017-09-27T09:31:20.265Z,63.40
2017-09-27T09:33:49.141Z,59.87
2017-09-27T09:36:17.999Z,60.63
2017-09-27T09:38:46.880Z,56.50
2017-09-27T09:41:15.749Z,52.40
2017-09-27T09:43:44.625Z,48.53
2017-09-27T09:46:13.480Z,55.43
2017-09-27T09:48:42.369Z,52.70
2017-09-27T09:51:11.232Z,51.43
2017-09-27T09:53:40.108Z,46.87
2017-09-27T09:56:08.976Z,43.70
2017-09-27T09:58:37.872Z,52.57
2017-09-27T10:01:06.732Z,50.13
2017-09-27T10:03:35.600Z,49.23
2017-09-27T10:06:04.489Z,51.90
2017-09-27T10:08:33.352Z,47.27
2017-09-27T10:11:02.228Z,49.10
2017-09-27T10:13:31.102Z,50.63
2017-09-27T10:15:59.980Z,48.23
2017-09-27T10:18:28.840Z,48.73
2017-09-27T10:20:57.716Z,45.23
2017-09-27T10:23:26.588Z,45.00
2017-09-27T10:25:55.468Z,47.33
2017-09-27T10:28:24.332Z,46.00
2017-09-27T10:30:53.240Z,45.83
2017-09-27T10:33:22.096Z,46.27
2017-09-27T10:35:50.956Z,44.43
2017-09-27T10:38:19.838Z,40.80
2017-09-27T10:40:48.699Z,44.20
2017-09-27T10:43:17.571Z,42.87
2017-09-27T10:45:46.428Z,40.50
2017-09-27T10:48:15.316Z,38.30
2017-09-27T10:50:44.176Z,39.73
2017-09-27T10:53:13.057Z,42.17
2017-09-27T10:55:41.920Z,38.03
2017-09-27T10:58:10.797Z,39.73
2017-09-27T11:00:39.660Z,42.93
2017-09-27T11:03:08.545Z,40.57
2017-09-27T11:05:37.411Z,40.03
2017-09-27T11:08:06.312Z,40.63
2017-09-27T11:10:35.177Z,41.03
2017-09-27T11:13:04.040Z,39.13
2017-09-27T11:15:32.930Z,37.27
2017-09-27T11:18:01.792Z,35.60
2017-09-27T11:20:30.668Z,37.60
2017-09-27T11:22:59.551Z,35.70
2017-09-27T11:25:28.428Z,34.30
2017-09-27T11:27:57.291Z,35.97
2017-09-27T11:30:26.169Z,33.10
2017-09-27T11:32:55.028Z,32.77
2017-09-27T11:35:23.927Z,33.17
2017-09-27T11:37:52.785Z,32.47
2017-09-27T11:40:21.644Z,30.50
2017-09-27T11:42:50.528Z,30.57
2017-09-27T11:45:19.393Z,31.43
2017-09-27T11:47:48.268Z,32.30
2017-09-27T11:50:17.132Z,35.33
2017-09-27T11:52:46.020Z,35.20
2017-09-27T11:55:14.881Z,34.13
2017-09-27T11:57:43.760Z,34.17
2017-09-27T12:00:12.640Z,33.13
2017-09-27T12:02:41.528Z,29.47
2017-09-27T12:05:10.389Z,31.17
2017-09-27T12:07:39.300Z,26.57
2017-09-27T12:10:08.169Z,30.57
2017-09-27T12:12:37.036Z,28.80
2017-09-27T12:15:05.920Z,27.30
2017-09-27T12:17:34.789Z,27.27
2017-09-27T12:20:03.686Z,27.30
2017-09-27T12:22:32.548Z,26.20
2017-09-27T12:25:01.427Z,26.12
2017-09-27T12:27:30.305Z,26.57
2017-09-27T12:29:59.260Z,26.73
2017-09-27T12:32:28.125Z,27.03
2017-09-27T12:34:57.000Z,25.93
2017-09-27T12:37:25.873Z,26.67
2017-09-27T12:39:54.761Z,26.37
2017-09-27T12:42:23.628Z,26.53
2017-09-27T12:44:52.529Z,24.77
2017-09-27T12:47:21.390Z,28.23
2017-09-27T12:49:50.254Z,24.60
2017-09-27T12:52:19.179Z,25.50
2017-09-27T12:54:48.058Z,26.80
2017-09-27T12:57:16.940Z,24.90
2017-09-27T12:59:45.801Z,26.53
2017-09-27T13:02:14.676Z,27.23
2017-09-27T13:04:43.537Z,26.83
2017-09-27T13:07:12.413Z,26.20
2017-09-27T13:09:41.276Z,27.50
2017-09-27T13:12:10.161Z,25.03
2017-09-27T13:14:39.080Z,25.93
2017-09-27T13:17:07.956Z,24.27
2017-09-27T13:19:36.815Z,24.17
2017-09-27T13:22:05.688Z,24.13
2017-09-27T13:24:34.552Z,23.03
2017-09-27T13:27:03.436Z,23.23
2017-09-27T13:29:32.301Z,24.17
2017-09-27T13:32:01.219Z,23.70
2017-09-27T13:34:30.077Z,22.83
2017-09-27T13:36:58.941Z,23.20
2017-09-27T13:39:27.848Z,24.13
2017-09-27T13:41:56.713Z,24.93
2017-09-27T13:44:25.596Z,24.07
2017-09-27T13:46:54.453Z,24.17
2017-09-27T13:49:23.323Z,23.53
2017-09-27T13:51:52.185Z,23.50
2017-09-27T13:54:21.069Z,22.80
2017-09-27T13:56:49.932Z,23.07
2017-09-27T13:59:18.812Z,21.23
2017-09-27T14:01:47.673Z,22.50
2017-09-27T14:04:16.553Z,22.30
2017-09-27T14:06:45.416Z,22.57
2017-09-27T14:09:14.292Z,20.90
2017-09-27T14:11:43.152Z,22.00
2017-09-27T14:14:12.035Z,21.33
2017-09-27T14:16:40.896Z,19.40
2017-09-27T14:19:09.795Z,21.33
2017-09-27T14:21:38.661Z,21.87
2017-09-27T14:24:07.532Z,22.83
2017-09-27T14:26:36.460Z,21.77
2017-09-27T14:29:05.324Z,19.13
2017-09-27T14:34:09.528Z,21.43
2017-09-27T14:36:38.413Z,21.13
2017-09-27T14:39:07.280Z,22.03
2017-09-27T14:41:36.160Z,22.23
2017-09-27T14:44:05.025Z,18.47
2017-09-27T14:46:33.903Z,20.73
2017-09-27T14:49:02.768Z,20.93
2017-09-27T14:51:31.652Z,20.20
2017-09-27T14:54:00.510Z,21.33
2017-09-27T14:56:29.425Z,20.40
2017-09-27T14:58:58.287Z,20.03
2017-09-27T15:01:27.144Z,20.17
2017-09-27T15:03:56.019Z,19.17
2017-09-27T15:06:24.888Z,19.77
2017-09-27T15:08:53.763Z,18.00
2017-09-27T15:11:22.633Z,20.47
2017-09-27T15:13:51.512Z,19.67
2017-09-27T15:16:20.393Z,18.10
2017-09-27T15:18:49.272Z,19.53
2017-09-27T15:21:18.137Z,18.93
2017-09-27T15:23:47.024Z,19.53
2017-09-27T15:26:15.888Z,18.67
2017-09-27T15:28:44.775Z,19.60
2017-09-27T15:31:13.636Z,20.50
2017-09-27T15:33:42.526Z,20.07
2017-09-27T15:36:11.392Z,18.90
2017-09-27T15:38:40.304Z,19.63
2017-09-27T15:41:09.172Z,18.97
2017-09-27T15:43:38.031Z,20.00
2017-09-27T15:46:06.912Z,20.80
2017-09-27T15:48:35.772Z,17.67
2017-09-27T15:51:04.646Z,20.33
2017-09-27T15:53:33.512Z,18.73
2017-09-27T15:56:02.388Z,17.10
2017-09-27T15:58:31.252Z,18.60
2017-09-27T16:01:00.139Z,20.27
2017-09-27T16:03:28.996Z,18.57
2017-09-27T16:05:57.877Z,18.80
2017-09-27T16:08:26.742Z,18.23
2017-09-27T16:10:55.619Z,20.93
2017-09-27T16:13:24.480Z,18.47
2017-09-27T16:15:53.368Z,18.20
2017-09-27T16:18:22.228Z,20.53
2017-09-27T16:20:51.120Z,18.47
2017-09-27T16:23:19.984Z,19.97
2017-09-27T16:25:48.849Z,21.10
2017-09-27T16:28:17.733Z,20.43
2017-09-27T16:30:46.600Z,19.57
2017-09-27T16:33:15.482Z,20.07
2017-09-27T16:35:44.352Z,19.83
2017-09-27T16:38:13.232Z,21.33
2017-09-27T16:40:42.113Z,19.00
2017-09-27T16:43:11.008Z,19.37
2017-09-27T16:45:39.873Z,20.33
2017-09-27T16:48:08.756Z,19.37
2017-09-27T16:50:37.620Z,19.87
2017-09-27T16:53:06.504Z,19.90
2017-09-27T16:55:35.364Z,18.60
2017-09-27T16:58:04.245Z,17.73
2017-09-27T17:00:33.124Z,19.57
2017-09-27T17:03:02.056Z,19.60
2017-09-27T17:05:30.913Z,17.20
2017-09-27T17:07:59.821Z,17.53
2017-09-27T17:10:28.783Z,17.70
2017-09-27T17:12:57.652Z,20.50
2017-09-27T17:15:26.532Z,17.37
2017-09-27T17:17:55.428Z,18.07
2017-09-27T17:20:24.313Z,16.73
2017-09-27T17:22:53.188Z,19.10
2017-09-27T17:25:22.082Z,16.97
2017-09-27T17:27:50.949Z,17.63
2017-09-27T17:30:19.832Z,16.90
2017-09-27T17:32:48.697Z,16.47
2017-09-27T17:35:17.584Z,17.40
2017-09-27T17:37:46.444Z,17.77
2017-09-27T17:40:15.336Z,19.10
2017-09-27T17:42:44.196Z,18.63
2017-09-27T17:45:13.072Z,19.47
2017-09-27T17:47:41.950Z,17.20
2017-09-27T17:50:10.829Z,20.93
2017-09-27T17:52:39.697Z,20.60
2017-09-27T17:55:08.581Z,20.00
2017-09-27T17:57:37.441Z,18.93
2017-09-27T18:00:06.326Z,19.00
2017-09-27T18:02:35.190Z,20.40
2017-09-27T18:05:14.747Z,18.97
2017-09-27T18:07:49.369Z,18.60
2017-09-27T18:10:24.000Z,19.40
2017-09-27T18:12:56.549Z,18.20
2017-09-27T18:15:31.057Z,19.37
2017-09-27T18:18:19.576Z,17.93
2017-09-27T18:20:48.472Z,18.87
2017-09-27T18:23:17.335Z,18.70
2017-09-27T18:25:46.197Z,17.53
2017-09-27T18:28:15.132Z,18.07
2017-09-27T18:30:44.000Z,18.77
2017-09-27T18:33:12.895Z,18.17
2017-09-27T18:35:41.760Z,17.33
2017-09-27T18:38:10.648Z,16.03
2017-09-27T18:40:39.524Z,19.00
2017-09-27T18:43:08.399Z,16.97
2017-09-27T18:45:37.264Z,19.37
2017-09-27T18:48:06.144Z,18.10
2017-09-27T18:50:35.008Z,17.37
2017-09-27T18:53:03.884Z,18.63
2017-09-27T18:55:32.749Z,17.70
2017-09-27T18:58:02.441Z,18.27
2017-09-27T19:00:31.307Z,19.17
2017-09-27T19:03:00.189Z,18.27
2017-09-27T19:05:29.061Z,18.27
2017-09-27T19:07:57.944Z,18.70
2017-09-27T19:10:26.804Z,18.27
2017-09-27T19:12:55.688Z,18.17
2017-09-27T19:15:24.550Z,17.67
2017-09-27T19:17:53.553Z,19.07
2017-09-27T19:20:22.433Z,19.00
2017-09-27T19:22:51.345Z,16.93
2017-09-27T19:25:20.208Z,18.63
2017-09-27T19:27:49.080Z,18.80
2017-09-27T19:30:17.966Z,17.30
2017-09-27T19:32:46.831Z,18.43
2017-09-27T19:35:15.708Z,17.67
2017-09-27T19:37:44.564Z,18.60
2017-09-27T19:40:13.442Z,17.90
2017-09-27T19:42:42.305Z,19.73
2017-09-27T19:45:11.184Z,18.63
2017-09-27T19:47:40.054Z,18.47
2017-09-27T19:50:08.937Z,18.80
2017-09-27T19:52:37.810Z,20.20
2017-09-27T19:55:06.689Z,19.17
2017-09-27T19:57:35.553Z,19.10
2017-09-27T20:00:04.455Z,20.33
2017-09-27T20:02:33.324Z,18.97
2017-09-27T20:05:02.190Z,19.50
2017-09-27T20:07:31.083Z,18.77
2017-09-27T20:09:59.953Z,19.20
2017-09-27T20:12:28.837Z,19.93
2017-09-27T20:14:57.697Z,20.87
2017-09-27T20:17:26.572Z,19.57
2017-09-27T20:19:55.438Z,21.03
2017-09-27T20:22:24.316Z,20.20
2017-09-27T20:24:53.184Z,20.50
2017-09-27T20:27:22.070Z,18.47
2017-09-27T20:29:50.929Z,19.80
2017-09-27T20:32:19.809Z,20.60
2017-09-27T20:34:48.665Z,22.53
2017-09-27T20:37:17.554Z,19.93
2017-09-27T20:39:46.420Z,19.40
2017-09-27T20:42:15.320Z,19.40
2017-09-27T20:44:44.189Z,19.17
2017-09-27T20:47:13.047Z,20.37
2017-09-27T20:49:41.931Z,21.77
2017-09-27T20:52:10.815Z,19.70
2017-09-27T20:54:39.693Z,20.47
2017-09-27T20:57:08.554Z,21.00
2017-09-27T20:59:37.427Z,21.77
2017-09-27T21:02:06.295Z,22.03
2017-09-27T21:04:35.168Z,21.33
2017-09-27T21:07:04.034Z,20.60
2017-09-27T21:09:32.911Z,20.10
2017-09-27T21:12:01.774Z,20.17
2017-09-27T21:14:30.653Z,19.50
2017-09-27T21:16:59.517Z,20.93
2017-09-27T21:19:28.388Z,20.97
2017-09-27T21:21:57.249Z,22.10
2017-09-27T21:24:26.149Z,20.67
2017-09-27T21:26:55.023Z,19.70
2017-09-27T21:29:23.898Z,20.73
2017-09-27T21:31:52.775Z,20.83
2017-09-27T21:34:21.648Z,19.87
2017-09-27T21:36:50.519Z,21.03
2017-09-27T21:39:19.389Z,20.83
2017-09-27T21:41:48.264Z,21.03
2017-09-27T21:44:17.119Z,20.60
2017-09-27T21:46:46.004Z,20.00
2017-09-27T21:49:14.872Z,20.40
2017-09-27T21:51:43.748Z,21.67
2017-09-27T21:54:12.613Z,21.00
2017-09-27T21:56:41.497Z,20.63
2017-09-27T21:59:10.363Z,22.17
2017-09-27T22:01:39.322Z,20.17
2017-09-27T22:04:08.184Z,18.83
2017-09-27T22:06:37.088Z,20.00
2017-09-27T22:09:05.956Z,21.50
2017-09-27T22:11:34.813Z,19.17
2017-09-27T22:16:37.961Z,19.20
2017-09-27T22:19:06.820Z,19.93
2017-09-27T22:21:35.679Z,22.67
2017-09-27T22:24:04.573Z,18.40
2017-09-27T22:26:33.435Z,21.30
2017-09-27T22:29:02.311Z,20.20
2017-09-27T22:31:31.173Z,20.90
2017-09-27T22:34:00.056Z,19.63
2017-09-27T22:36:28.932Z,21.73
2017-09-27T22:38:57.837Z,19.23
2017-09-27T22:41:26.705Z,20.53
2017-09-27T22:43:55.584Z,19.80
2017-09-27T22:46:24.457Z,20.60
2017-09-27T22:48:53.340Z,21.30
2017-09-27T22:51:22.204Z,20.37
2017-09-27T22:53:51.080Z,20.20
2017-09-27T22:56:19.944Z,19.50
2017-09-27T22:58:48.819Z,22.10
2017-09-27T23:01:17.676Z,21.10
2017-09-27T23:03:46.541Z,24.93
2017-09-27T23:06:15.412Z,20.77
2017-09-27T23:08:44.268Z,19.53
2017-09-27T23:11:13.153Z,22.30
2017-09-27T23:13:42.021Z,20.00
2017-09-27T23:16:10.896Z,21.37
2017-09-27T23:18:39.762Z,21.40
2017-09-27T23:21:08.636Z,19.57
2017-09-27T23:23:37.504Z,21.50
2017-09-27T23:26:06.387Z,21.00
2017-09-27T23:28:35.248Z,21.67
2017-09-27T23:31:04.133Z,20.20
2017-09-27T23:33:33.016Z,20.53
2017-09-27T23:36:01.908Z,22.33
2017-09-27T23:38:30.764Z,21.30
2017-09-27T23:40:59.665Z,20.60
2017-09-27T23:43:28.533Z,20.10
2017-09-27T23:45:57.395Z,20.97
2017-09-27T23:48:26.276Z,19.90
2017-09-27T23:50:55.136Z,21.17
2017-09-27T23:53:24.017Z,19.77
2017-09-27T23:55:52.877Z,19.57
2017-09-27T23:58:21.756Z,20.03
